createdAt,value
2023-03-13T17:02:04.746Z,6.00
2023-03-13T17:03:37.116Z,3.60
2023-03-13T17:05:16.383Z,5.40
2023-03-13T17:06:53.530Z,6.40
2023-03-13T17:08:25.479Z,4.20
2023-03-13T17:09:57.433Z,5.80
2023-03-13T17:11:29.859Z,7.40
2023-03-13T17:13:01.800Z,8.40
2023-03-13T17:14:33.676Z,6.80
2023-03-13T17:16:20.741Z,5.40
2023-03-13T17:17:56.169Z,6.60
2023-03-13T17:19:28.863Z,5.40
2023-03-13T17:21:01.034Z,6.20
2023-03-13T17:22:33.051Z,5.40
2023-03-13T17:24:07.280Z,4.80
2023-03-13T17:26:04.052Z,5.40
2023-03-13T17:27:36.173Z,8.00
2023-03-13T17:29:17.231Z,6.60
2023-03-13T17:30:54.498Z,7.40
2023-03-13T17:32:26.619Z,4.00
2023-03-13T17:33:58.628Z,7.60
2023-03-13T17:35:30.705Z,4.40
2023-03-13T17:37:04.986Z,7.20
2023-03-13T17:38:36.888Z,8.20
2023-03-13T17:40:34.655Z,5.00
2023-03-13T17:42:08.153Z,8.00
2023-03-13T17:43:42.405Z,7.00
2023-03-13T17:45:14.617Z,6.00
2023-03-13T17:46:47.546Z,7.00
2023-03-13T17:48:29.299Z,6.40
2023-03-13T17:50:18.400Z,5.20
2023-03-13T17:51:59.354Z,6.00
2023-03-13T17:53:31.495Z,6.00
2023-03-13T17:55:03.451Z,5.60
2023-03-13T17:57:03.562Z,5.00
2023-03-13T17:58:35.431Z,6.80
2023-03-13T18:00:25.514Z,5.00
2023-03-13T18:01:59.144Z,7.00
2023-03-13T18:03:31.275Z,6.00
2023-03-13T18:05:03.227Z,5.00
2023-03-13T18:06:50.310Z,7.80
2023-03-13T18:08:24.093Z,6.80
2023-03-13T18:10:00.151Z,6.00
2023-03-13T18:11:32.159Z,0.00
2023-03-13T18:13:04.241Z,9.40
2023-03-13T18:14:37.640Z,8.60
2023-03-13T18:16:59.126Z,5.60
2023-03-13T18:18:31.178Z,9.80
2023-03-13T18:22:35.446Z,11.00
2023-03-13T18:24:11.190Z,8.40
2023-03-13T18:25:46.740Z,10.00
2023-03-13T18:27:44.393Z,8.60
2023-03-13T18:29:26.883Z,10.00
2023-03-13T18:31:01.977Z,13.60
2023-03-13T18:32:34.064Z,20.60
2023-03-13T18:34:05.985Z,21.80
2023-03-13T18:35:42.611Z,25.60
2023-03-13T18:37:40.723Z,40.20
2023-03-13T18:39:22.264Z,46.40
2023-03-13T18:40:55.740Z,59.00
2023-03-13T18:42:27.924Z,67.50
2023-03-13T18:44:01.739Z,65.00
2023-03-13T18:45:34.081Z,74.50
2023-03-13T18:47:40.760Z,75.00
2023-03-13T18:49:20.385Z,81.00
2023-03-13T18:50:52.288Z,86.50
2023-03-13T18:52:29.894Z,107.00
2023-03-13T18:54:01.851Z,99.40
2023-03-13T18:55:33.661Z,118.00
2023-03-13T18:57:22.806Z,123.50
2023-03-13T18:58:57.508Z,134.00
2023-03-13T19:00:55.251Z,131.50
2023-03-13T19:02:52.096Z,149.00
2023-03-13T19:04:26.412Z,153.75
2023-03-13T19:06:03.450Z,160.00
2023-03-13T19:07:35.333Z,176.75
2023-03-13T19:09:41.551Z,163.50
2023-03-13T19:11:18.688Z,176.25
2023-03-13T19:12:56.816Z,191.50
2023-03-13T19:14:32.243Z,190.00
2023-03-13T19:16:44.523Z,174.75
2023-03-13T19:18:17.116Z,195.75
2023-03-13T19:19:50.321Z,149.50
2023-03-13T19:21:26.631Z,182.50
2023-03-13T19:23:00.789Z,191.33
2023-03-13T19:24:32.955Z,177.00
2023-03-13T19:26:05.095Z,174.50
2023-03-13T19:27:37.351Z,213.33
2023-03-13T19:29:21.490Z,179.25
2023-03-13T19:30:58.569Z,209.25
2023-03-13T19:32:30.624Z,176.75
2023-03-13T19:34:02.468Z,185.50
2023-03-13T19:35:34.497Z,183.75
2023-03-13T19:37:06.715Z,175.00
2023-03-13T19:38:42.464Z,157.25
2023-03-13T19:40:20.850Z,161.25
2023-03-13T19:41:53.237Z,171.25
2023-03-13T19:43:27.091Z,168.00
2023-03-13T19:47:25.526Z,166.75
2023-03-13T19:48:58.701Z,164.50
2023-03-13T19:50:31.688Z,151.75
2023-03-13T19:52:03.765Z,146.75
2023-03-13T19:53:35.693Z,144.25
2023-03-13T19:55:14.673Z,144.25
2023-03-13T19:56:48.002Z,141.00
2023-03-13T19:58:49.913Z,151.50
2023-03-13T20:00:35.110Z,154.75
2023-03-13T20:02:11.490Z,143.00
2023-03-13T20:03:47.043Z,147.25
2023-03-13T20:07:20.604Z,162.50
2023-03-13T20:08:59.576Z,164.25
2023-03-13T20:10:31.578Z,160.25
2023-03-13T20:12:03.614Z,154.25
2023-03-13T20:13:35.815Z,172.75
2023-03-13T20:15:11.055Z,163.25
2023-03-13T20:16:44.023Z,170.50
2023-03-13T20:18:19.330Z,190.50
2023-03-13T20:19:54.465Z,174.75
2023-03-13T20:21:44.480Z,187.00
2023-03-13T20:23:21.535Z,187.25
2023-03-13T20:24:58.959Z,191.75
2023-03-13T20:26:31.033Z,193.67
2023-03-13T20:28:02.856Z,190.50
2023-03-13T20:29:36.581Z,190.50
2023-03-13T20:32:00.614Z,193.00
2023-03-13T20:33:33.119Z,189.75
2023-03-13T20:35:30.307Z,196.00
2023-03-13T20:37:04.070Z,205.33
2023-03-13T20:38:36.159Z,202.00
2023-03-13T20:40:37.977Z,188.00
2023-03-13T20:42:20.333Z,229.67
2023-03-13T20:46:16.991Z,216.00
2023-03-13T20:47:55.417Z,211.67
2023-03-13T20:49:27.583Z,223.33
2023-03-13T20:51:00.936Z,216.33
2023-03-13T20:52:33.990Z,230.33
2023-03-13T20:54:06.001Z,219.00
2023-03-13T20:55:38.797Z,209.00
2023-03-13T20:57:14.085Z,198.67
2023-03-13T20:58:48.380Z,221.33
2023-03-13T21:00:27.798Z,213.33
2023-03-13T21:02:24.742Z,194.33
2023-03-13T21:03:56.790Z,208.33
2023-03-13T21:05:28.959Z,212.00
2023-03-13T21:07:04.759Z,196.00
2023-03-13T21:08:38.580Z,200.00
2023-03-13T21:10:13.127Z,213.33
2023-03-13T21:11:48.416Z,207.00
2023-03-13T21:13:20.861Z,205.67
2023-03-13T21:14:58.066Z,191.67
2023-03-13T21:16:33.937Z,207.67
2023-03-13T21:18:17.187Z,211.67
2023-03-13T21:19:53.914Z,204.00
2023-03-13T21:21:29.385Z,195.67
2023-03-13T21:23:01.465Z,210.33
2023-03-13T21:24:34.755Z,214.67
2023-03-13T21:26:06.877Z,207.00
2023-03-13T21:28:03.939Z,202.33
2023-03-13T21:29:35.822Z,202.67
2023-03-13T21:31:38.922Z,202.33
2023-03-13T21:33:15.531Z,205.33
2023-03-13T21:34:47.738Z,165.00
2023-03-13T21:36:21.858Z,209.00
2023-03-13T21:37:55.914Z,177.25
2023-03-13T21:39:27.898Z,182.25
2023-03-13T21:40:59.825Z,179.25
2023-03-13T21:42:31.932Z,195.00
2023-03-13T21:44:03.988Z,222.33
2023-03-13T21:45:39.671Z,212.67
2023-03-13T21:47:12.918Z,201.67
2023-03-13T21:48:48.704Z,167.50
2023-03-13T21:50:25.502Z,174.50
2023-03-13T21:52:26.172Z,160.00
2023-03-13T21:54:00.475Z,145.25
2023-03-13T21:55:35.532Z,138.75
2023-03-13T21:57:14.088Z,146.50
2023-03-13T21:58:49.975Z,157.00
2023-03-13T22:00:22.304Z,136.25
2023-03-13T22:01:54.377Z,151.00
2023-03-13T22:03:26.979Z,144.50
2023-03-13T22:04:59.050Z,143.50
2023-03-13T22:06:40.758Z,137.50
2023-03-13T22:08:13.673Z,145.75
2023-03-13T22:10:16.278Z,147.25
2023-03-13T22:11:49.104Z,155.00
2023-03-13T22:13:24.395Z,139.50
2023-03-13T22:15:24.860Z,141.00
2023-03-13T22:17:22.405Z,151.50
2023-03-13T22:18:54.380Z,146.50
2023-03-13T22:20:28.728Z,131.75
2023-03-13T22:22:03.161Z,143.25
2023-03-13T22:23:35.195Z,139.25
2023-03-13T22:25:09.277Z,144.00
2023-03-13T22:26:41.266Z,134.25
2023-03-13T22:28:37.580Z,131.25
2023-03-13T22:30:13.366Z,146.75
2023-03-13T22:31:45.540Z,130.00
2023-03-13T22:33:23.732Z,114.25
2023-03-13T22:34:55.775Z,124.75
2023-03-13T22:36:27.740Z,134.00
2023-03-13T22:37:59.761Z,132.50
2023-03-13T22:39:31.820Z,123.00
2023-03-13T22:41:04.335Z,130.00
2023-03-13T22:42:36.255Z,114.75
2023-03-13T22:44:10.164Z,118.25
2023-03-13T22:45:47.739Z,123.75
2023-03-13T22:47:27.954Z,113.00
2023-03-13T22:49:01.159Z,106.25
2023-03-13T22:50:34.466Z,116.00
2023-03-13T22:52:06.496Z,121.50
2023-03-13T22:53:39.892Z,114.60
2023-03-13T22:55:13.688Z,111.50
2023-03-13T22:56:50.803Z,112.40
2023-03-13T22:58:47.664Z,107.25
2023-03-13T23:00:22.979Z,119.50
2023-03-13T23:02:45.352Z,128.50
2023-03-13T23:04:44.554Z,113.60
2023-03-13T23:06:25.606Z,98.40
2023-03-13T23:08:04.161Z,102.80
2023-03-13T23:09:36.158Z,91.50
2023-03-13T23:11:10.715Z,83.25
2023-03-13T23:12:48.068Z,98.75
2023-03-13T23:14:20.423Z,82.50
2023-03-13T23:15:56.173Z,96.25
2023-03-13T23:17:31.499Z,89.75
2023-03-13T23:19:03.576Z,94.40
2023-03-13T23:20:36.379Z,95.80
2023-03-13T23:22:20.474Z,91.60
2023-03-13T23:23:55.226Z,97.60
2023-03-13T23:25:31.415Z,94.80
2023-03-13T23:27:06.227Z,97.00
2023-03-13T23:29:02.935Z,100.60
2023-03-13T23:30:35.107Z,104.00
2023-03-13T23:32:07.215Z,98.40
2023-03-13T23:34:03.826Z,100.80
